Kinetic One Castle Combe TT - Race 4
Skip Navigation Links
Results
DB Max TT Series
Details
Smartphone Results
8 Jul 2015
HyperLink
Page 1 of 1 (37 items)
Pos
Bib No
Fav
Share
Name
Time
Category
Cat Pos
Gender
Gen Pos
Club
Split 1
G/Pos
Lap 1
G/Pos
Lap 2
G/Pos
Lap 3
G/Pos
Lap 4
G/Pos
Lap 5
G/Pos
145Ben ANSTIE21:11.29Sen1Male173 Degrees1:47.5213:50.4213:53.7113:55.0313:53.3513:51.231
216Pete KIBBLE21:31.56Jun1Male2 1:50.5224:00.7923:54.2823:55.8923:57.1723:52.902
343Jon PRIDHAM22:21.51Vet1Male3VECTIS ROADS CYCLING CLUB (VRCC) - ISLE OF WIGHT1:51.8944:05.0444:09.5344:06.0334:06.2934:02.713
442Martin ALDAM22:40.94Vet2Male4FROME AND DISTRICT WHEELERS1:50.6834:05.6434:05.2334:11.5754:13.8744:13.944
539Ben MATTHEWS23:09.28Sen2Male5 1:53.9974:10.0754:15.8154:14.0864:18.1654:17.167
66Andy MORGAN23:40.23Vet3Male6KINETIC ONE2:07.45134:19.93114:24.7594:11.5044:21.2564:15.335
734Paul LAMBERT23:45.32Vet4Male7CHIPPENHAM WHEELERS2:04.26104:18.3494:22.9074:21.8574:22.2874:15.676
846Ben SKINNER23:46.98Sen3Male8VIBE FITNESS BATH1:52.8964:21.4164:24.7284:24.7294:23.9484:19.298
938Danny LAKE23:56.19Vet5Male9DIDCOT PHOENIX CC1:57.9884:21.3984:20.8864:24.2484:26.2594:25.4411
1040James EACOTT24:11.64Sen4Male10BATH AMPHIBIANS1:52.5354:24.9674:29.31104:35.44124:29.72104:19.669
1131Rob HALL24:16.67Vet6Male11SALTFORD AND KEYNSHAM CC2:03.3894:21.95104:29.35114:28.76104:32.12114:21.0910
1228Ian MOORE24:37.37SupVet1Male12CYCOLOGY2:06.30124:28.95124:30.03124:29.89114:32.86124:29.3112
1332Sian CAHILL24:57.99Sen1Female1ZAPPI'S RACING TEAM2:06.7114:27.0614:40.0314:33.3214:40.9214:29.931
149Jonathan SINCLAIR25:06.00SupVet2Male13NORTH GLOS2:08.81144:34.58144:38.97134:36.57134:37.00134:30.0413
1535Sam KENYON25:47.53Vet7Male14FLYING MONK TRIATHLON CLUB2:15.24184:45.56194:40.99144:42.88144:42.98144:39.8614
1621Matthew TIBBLES26:03.73Sen5Male15KINETIC ONE2:09.20154:50.94184:46.30174:47.64154:48.52174:41.1115
1741Mike COX26:10.21SupVet3Male16CHIPPENHAM TRI2:11.65174:47.00174:45.85164:50.06184:48.17154:47.4616
1826Pete WOOD26:18.27Sen6Male17 2:17.71234:39.84164:49.08184:49.63174:49.01184:52.9718
1923Ray PERKINS26:29.26SupVet4Male18PSYCLEWERX2:15.57204:41.25154:49.58194:55.11204:57.07204:50.6617
2015John BUSH26:54.68SupVet5Male19MAIDENHEAD & DISTRICT CYCLING CLUB2:15.45194:57.36204:54.05204:54.57194:52.81195:00.4320
2125Clive SHIPWAY27:01.88Sen7Male20S R C2:04.80114:36.03134:45.16154:49.31164:48.23165:58.3327
2220Kate DERRICK27:39.55Sen2Female2 2:21.3135:01.6725:05.5725:04.1725:07.0724:59.732
2310George SCULLY27:48.68SupVet601Male21GLOUCESTER CITY CC2:23.49254:58.61215:09.10215:02.53215:14.98244:59.9619
2417Phil WELDON28:10.98Sen8Male22 2:16.48225:13.80225:13.40235:11.31225:09.57215:06.4021
258Bethan RHODES28:16.17Sen3Female3WESTONBIRT TRI CLUB2:21.8945:06.7245:17.0645:09.8835:12.1235:08.483
2624Sarah SMITH28:25.32Sen4Female4 2:19.7925:05.0135:13.9235:12.0145:22.0555:12.524
2711Freddie DAVIS28:39.40Sen9Male23 2:15.92215:17.63245:12.25225:19.43245:23.18255:10.9722
284James CANFER28:43.07Sen10Male24 2:22.05245:12.65255:24.89255:13.75235:13.32235:16.3824
297Will LAMBERT28:51.38Jun2Male25CHIPPENHAM WHEELERS2:10.00165:27.57265:25.68265:20.75255:11.19225:16.1723
3027Nigel EVANS28:58.30Vet8Male26AVON VALLEY TRIATHLETES2:26.25265:06.83235:15.97245:22.33265:26.10265:20.8125
3118Hannah MAYNARD29:08.53Jun1Female5 2:25.4465:26.3455:19.3155:20.1355:19.0445:18.265
3212Graham HEWSON31:27.49SupVet602Male27SIMONSTRONG CAPAIGNERS - MEDIA VELO2:28.68275:48.84275:40.20275:47.16275:52.16275:50.4326
3319Lauren BOOTH31:30.06Jun2Female6Carnac Planet X2:22.1055:33.4565:43.0165:52.3366:13.2085:45.966
3413Scartlett WILLIAMS31:52.66Sen5Female7 2:27.4375:46.6975:49.6575:52.3675:57.1465:59.377
3514Mary DERRICK32:35.29SupVet1Female8WESTONBIRT2:36.1085:48.9985:49.8186:03.8786:02.9576:13.558
363Ann TWEEDALE34:21.80SupVet2Female9 2:46.6196:20.2096:22.1296:14.4396:20.3896:18.039
375Vicky ODY46:42.99Vet1Female10AVON VALLEY TRIATHLETES3:20.25106:48.95106:50.94106:38.16106:49.961016:14.7010
Page 1 of 1 (37 items)
fb

HyperLink Copyright (c) G Vincent, 2018